Time;durP1;ratioP1;P1;durP2;ratioP2;P2;SDS_P1;SDS_P2;PMS_P1;PMS_P2;Temp;Humidity;BMP_temperature;BMP_pressure;BME280_temperature;BME280_humidity;BME280_pressure;Samples;Min_cycle;Max_cycle;Signal;HPM_P1;HPM_P2
2023/05/19 00:00:17;;;;;;;7.40;4.63;;;13.30;65.60;;;;;;5010966;28;20419;-71
2023/05/19 00:02:43;;;;;;;9.50;4.20;;;13.30;65.40;;;;;;5027279;28;20424;-73
2023/05/19 00:05:11;;;;;;;9.13;4.00;;;13.20;65.60;;;;;;5012159;28;20432;-71
2023/05/19 00:07:37;;;;;;;8.03;4.13;;;13.10;65.70;;;;;;5009824;28;20223;-73
2023/05/19 00:10:04;;;;;;;9.23;4.23;;;12.90;66.10;;;;;;5009803;28;20420;-72
2023/05/19 00:12:30;;;;;;;9.03;4.40;;;13.00;66.30;;;;;;5011401;28;21107;-72
2023/05/19 00:14:56;;;;;;;5.67;3.70;;;13.00;66.10;;;;;;5011489;28;20441;-71
2023/05/19 00:17:22;;;;;;;8.63;3.73;;;12.90;66.30;;;;;;5010788;28;20453;-72
2023/05/19 00:19:47;;;;;;;13.60;4.57;;;12.70;66.90;;;;;;5015288;28;20847;-70
2023/05/19 00:22:13;;;;;;;6.90;3.77;;;12.80;67.20;;;;;;5015342;28;20511;-71
2023/05/19 00:24:39;;;;;;;7.00;3.50;;;12.90;67.00;;;;;;5015761;28;20190;-74
2023/05/19 00:27:04;;;;;;;9.47;4.50;;;12.90;66.90;;;;;;5014827;28;20919;-71
2023/05/19 00:29:30;;;;;;;7.23;4.17;;;13.00;66.90;;;;;;5015053;28;20268;-72
2023/05/19 00:31:56;;;;;;;6.53;4.00;;;13.00;67.30;;;;;;5024590;28;20572;-71
2023/05/19 00:34:21;;;;;;;8.73;4.37;;;13.00;67.90;;;;;;5014375;28;20236;-71
2023/05/19 00:36:47;;;;;;;6.30;4.10;;;13.10;68.20;;;;;;5009625;28;20559;-70
2023/05/19 00:39:12;;;;;;;7.20;4.40;;;13.10;68.30;;;;;;5014043;28;20209;-73
2023/05/19 00:41:38;;;;;;;10.70;4.60;;;13.00;68.80;;;;;;5014247;28;20182;-72
2023/05/19 00:44:05;;;;;;;8.50;4.00;;;13.00;68.80;;;;;;5016405;28;20619;-73
2023/05/19 00:46:30;;;;;;;5.97;3.50;;;13.00;69.10;;;;;;5010524;28;20206;-71
2023/05/19 00:48:56;;;;;;;10.67;4.07;;;13.00;69.10;;;;;;5016222;28;20525;-72
2023/05/19 00:51:24;;;;;;;8.20;4.37;;;12.90;69.10;;;;;;5022373;28;20268;-71
2023/05/19 00:53:50;;;;;;;6.20;3.77;;;12.90;69.20;;;;;;5017922;28;20185;-72
2023/05/19 00:56:17;;;;;;;8.53;4.30;;;12.80;69.10;;;;;;5019394;28;20503;-73
2023/05/19 00:58:44;;;;;;;11.30;4.10;;;12.70;68.60;;;;;;5016106;28;20423;-72
2023/05/19 01:01:10;;;;;;;4.97;3.40;;;12.70;67.70;;;;;;5018514;28;20429;-73
2023/05/19 01:03:39;;;;;;;6.97;3.67;;;12.70;67.90;;;;;;5014478;28;20444;-72
2023/05/19 01:06:06;;;;;;;7.60;4.37;;;12.80;68.50;;;;;;5015539;28;20464;-72
2023/05/19 01:08:36;;;;;;;11.23;4.30;;;12.90;68.90;;;;;;5018554;28;20989;-72
2023/05/19 01:11:06;;;;;;;6.30;3.47;;;12.90;68.60;;;;;;5028767;28;20426;-73
2023/05/19 01:13:33;;;;;;;14.67;4.00;;;12.90;69.10;;;;;;5024486;28;20508;-73
2023/05/19 01:16:18;;;;;;;5.83;3.50;;;12.80;69.50;;;;;;5014889;28;20500;-71
2023/05/19 01:19:18;;;;;;;8.87;4.77;;;12.80;69.50;;;;;;5020265;28;20448;-71
2023/05/19 01:22:24;;;;;;;5.97;3.47;;;12.80;69.70;;;;;;5010716;28;20444;-72
2023/05/19 01:25:11;;;;;;;7.03;3.90;;;12.80;69.70;;;;;;5013917;28;20421;-71
2023/05/19 01:27:56;;;;;;;6.60;3.73;;;12.70;69.90;;;;;;5006903;28;20441;-72
2023/05/19 01:30:35;;;;;;;8.73;3.90;;;12.70;70.10;;;;;;5006606;28;20503;-72
2023/05/19 01:33:06;;;;;;;6.33;4.10;;;12.70;70.10;;;;;;5022039;28;20431;-71
2023/05/19 01:35:35;;;;;;;7.90;4.60;;;12.70;69.90;;;;;;5011466;28;20832;-72
2023/05/19 01:38:02;;;;;;;14.63;5.40;;;12.70;70.10;;;;;;5017195;28;20428;-72
2023/05/19 01:40:28;;;;;;;7.67;3.87;;;12.60;69.90;;;;;;5014609;28;20865;-71
2023/05/19 01:42:57;;;;;;;7.40;4.00;;;12.60;68.90;;;;;;5017566;28;20433;-72
2023/05/19 01:45:24;;;;;;;8.13;4.13;;;12.50;69.20;;;;;;5010251;28;20421;-73
2023/05/19 01:47:54;;;;;;;7.50;4.10;;;12.60;69.80;;;;;;5009908;28;20479;-72
2023/05/19 01:50:20;;;;;;;8.50;3.83;;;12.70;69.90;;;;;;5016618;28;20423;-72
2023/05/19 01:52:45;;;;;;;10.43;4.23;;;12.70;70.20;;;;;;5015754;28;20849;-72
2023/05/19 01:55:11;;;;;;;10.80;4.10;;;12.70;70.10;;;;;;5015884;28;20480;-72
2023/05/19 01:58:13;;;;;;;11.47;3.90;;;12.80;70.20;;;;;;5015386;28;20213;-72
2023/05/19 02:01:06;;;;;;;7.13;3.77;;;12.90;70.20;;;;;;5007060;28;20281;-73
2023/05/19 02:04:04;;;;;;;7.20;3.70;;;12.80;70.40;;;;;;5006003;28;20427;-72
2023/05/19 02:06:40;;;;;;;10.20;4.97;;;12.80;70.40;;;;;;5003091;28;20465;-72
2023/05/19 02:09:22;;;;;;;7.00;4.60;;;12.70;70.50;;;;;;5011678;28;20474;-73
2023/05/19 02:11:53;;;;;;;7.43;4.33;;;12.50;69.70;;;;;;5010845;28;20421;-72
2023/05/19 02:14:30;;;;;;;6.63;3.80;;;12.30;69.80;;;;;;5016858;28;20431;-72
2023/05/19 02:16:57;;;;;;;6.30;4.20;;;12.40;70.10;;;;;;5009257;28;20825;-72
2023/05/19 02:19:31;;;;;;;8.00;4.30;;;12.40;69.80;;;;;;5016221;28;20549;-72
2023/05/19 02:21:57;;;;;;;8.43;3.80;;;12.50;69.50;;;;;;5014149;28;20427;-72
2023/05/19 02:24:22;;;;;;;8.43;4.40;;;12.40;69.40;;;;;;5014064;28;20444;-73
2023/05/19 02:26:49;;;;;;;9.50;3.70;;;12.40;69.70;;;;;;5007340;28;20312;-72
2023/05/19 02:29:15;;;;;;;6.60;3.53;;;12.40;69.50;;;;;;5019561;28;20278;-72
2023/05/19 02:31:40;;;;;;;8.57;3.73;;;12.50;69.40;;;;;;5010177;28;20907;-75
2023/05/19 02:34:07;;;;;;;8.87;4.03;;;12.50;69.20;;;;;;5011628;28;20189;-72
2023/05/19 02:36:35;;;;;;;9.60;3.70;;;12.40;69.40;;;;;;5009701;28;20291;-73
2023/05/19 02:39:04;;;;;;;9.00;4.00;;;12.30;69.70;;;;;;5018604;28;20448;-71
2023/05/19 02:41:30;;;;;;;7.50;4.07;;;12.30;69.70;;;;;;5013584;28;20987;-73
2023/05/19 02:43:56;;;;;;;6.43;4.30;;;12.30;69.80;;;;;;5020765;28;20440;-73
2023/05/19 02:46:22;;;;;;;8.07;4.43;;;12.20;70.10;;;;;;5007784;28;20549;-72
2023/05/19 02:48:49;;;;;;;7.87;4.27;;;11.60;71.10;;;;;;5013855;28;20466;-71
2023/05/19 02:51:14;;;;;;;6.93;5.10;;;11.60;71.70;;;;;;5014768;28;20966;-72
2023/05/19 02:53:40;;;;;;;7.23;4.00;;;11.60;71.60;;;;;;5014578;28;20420;-72
2023/05/19 02:56:06;;;;;;;6.57;4.17;;;11.70;71.60;;;;;;5006852;28;20201;-72
2023/05/19 02:58:31;;;;;;;8.60;3.90;;;11.80;71.40;;;;;;5008558;28;20192;-72
2023/05/19 03:00:57;;;;;;;11.30;4.37;;;11.90;71.40;;;;;;5010252;28;20189;-72
2023/05/19 03:03:22;;;;;;;8.33;4.20;;;12.00;71.30;;;;;;5017995;28;20178;-72
2023/05/19 03:05:48;;;;;;;7.90;3.83;;;12.00;71.10;;;;;;5011446;28;20210;-72
2023/05/19 03:08:14;;;;;;;10.97;4.67;;;12.10;70.80;;;;;;5010265;28;20201;-73
2023/05/19 03:10:40;;;;;;;10.53;4.60;;;12.10;70.80;;;;;;5008195;28;20214;-71
2023/05/19 03:13:05;;;;;;;8.47;3.80;;;12.10;70.70;;;;;;5014205;28;20190;-71
2023/05/19 03:15:32;;;;;;;8.00;3.90;;;12.10;70.80;;;;;;5015470;28;20464;-72
2023/05/19 03:17:57;;;;;;;8.60;4.03;;;12.20;70.70;;;;;;5012095;28;20182;-71
2023/05/19 03:20:23;;;;;;;13.70;4.80;;;12.20;70.80;;;;;;5021924;28;20427;-71
2023/05/19 03:22:49;;;;;;;10.23;4.30;;;12.20;70.80;;;;;;5018210;28;20334;-70
2023/05/19 03:25:15;;;;;;;9.37;4.40;;;12.00;71.00;;;;;;5019121;28;20177;-71
2023/05/19 03:27:40;;;;;;;6.77;4.20;;;11.90;71.40;;;;;;5014156;28;20538;-70
2023/05/19 03:30:07;;;;;;;9.73;4.27;;;11.90;71.40;;;;;;5016863;28;20564;-72
2023/05/19 03:32:32;;;;;;;11.17;4.13;;;11.90;71.40;;;;;;5015334;28;20287;-72
2023/05/19 03:34:58;;;;;;;7.87;3.97;;;11.80;71.70;;;;;;5018342;28;20866;-71
2023/05/19 03:37:24;;;;;;;8.17;4.83;;;11.70;71.70;;;;;;5014391;28;20256;-71
2023/05/19 03:39:49;;;;;;;8.57;4.50;;;11.70;72.00;;;;;;5013764;28;20198;-70
2023/05/19 03:42:15;;;;;;;9.07;4.40;;;11.60;72.10;;;;;;5015618;28;20265;-72
2023/05/19 03:44:40;;;;;;;9.47;4.30;;;11.50;72.40;;;;;;5018872;28;20193;-70
2023/05/19 03:47:06;;;;;;;8.63;4.27;;;11.60;72.40;;;;;;5008718;28;20680;-71
2023/05/19 03:49:32;;;;;;;8.90;4.80;;;11.50;72.40;;;;;;5017202;28;20209;-71
2023/05/19 03:51:57;;;;;;;9.03;4.10;;;11.60;72.60;;;;;;5017686;28;20182;-72
2023/05/19 03:54:23;;;;;;;7.67;4.30;;;11.60;72.60;;;;;;5012709;28;20194;-70
2023/05/19 03:56:48;;;;;;;6.13;3.87;;;11.60;72.60;;;;;;5007594;28;20676;-72
2023/05/19 03:59:15;;;;;;;6.57;3.73;;;11.70;72.60;;;;;;5019623;28;20248;-71
2023/05/19 04:01:40;;;;;;;9.00;4.37;;;11.80;72.60;;;;;;5014331;28;20188;-70
2023/05/19 04:04:06;;;;;;;8.83;4.30;;;11.70;72.60;;;;;;5018731;28;20450;-71
2023/05/19 04:06:32;;;;;;;7.37;4.17;;;11.70;72.60;;;;;;5010705;28;20210;-71
2023/05/19 04:08:58;;;;;;;6.50;3.90;;;11.80;72.70;;;;;;5011559;28;20258;-72
2023/05/19 04:11:24;;;;;;;11.20;4.40;;;11.80;72.90;;;;;;5015804;28;20436;-71
2023/05/19 04:13:49;;;;;;;6.47;4.40;;;11.80;72.90;;;;;;5019049;28;20182;-71
2023/05/19 04:16:15;;;;;;;6.53;3.63;;;11.90;72.90;;;;;;5011369;28;20213;-71
2023/05/19 04:18:41;;;;;;;7.47;4.20;;;11.90;72.90;;;;;;5012024;28;20275;-71
2023/05/19 04:21:07;;;;;;;11.63;4.53;;;11.90;72.90;;;;;;5020590;28;20260;-70
2023/05/19 04:23:33;;;;;;;8.27;4.50;;;11.90;72.90;;;;;;5011648;28;20196;-72
2023/05/19 04:26:00;;;;;;;12.43;4.40;;;11.90;72.90;;;;;;5011485;28;20461;-72
2023/05/19 04:28:26;;;;;;;8.70;4.90;;;11.90;72.70;;;;;;5009178;28;20214;-71
2023/05/19 04:30:51;;;;;;;7.50;4.30;;;11.80;72.70;;;;;;5018814;28;20423;-72
2023/05/19 04:33:18;;;;;;;7.80;4.90;;;11.80;72.60;;;;;;5012806;28;20269;-71
2023/05/19 04:35:44;;;;;;;9.63;4.67;;;11.80;72.70;;;;;;5011323;28;20643;-70
2023/05/19 04:38:10;;;;;;;12.17;4.43;;;11.60;72.90;;;;;;5005824;28;20504;-71
2023/05/19 04:40:36;;;;;;;11.50;5.00;;;11.70;73.20;;;;;;5017778;28;20191;-72
2023/05/19 04:43:02;;;;;;;15.60;5.13;;;11.40;73.20;;;;;;5012277;28;20436;-72
2023/05/19 04:45:27;;;;;;;10.00;5.50;;;11.20;73.50;;;;;;5019733;28;21421;-71
2023/05/19 04:47:56;;;;;;;11.97;6.23;;;11.10;73.60;;;;;;5010105;28;20202;-70
2023/05/19 04:50:22;;;;;;;8.97;6.00;;;11.00;73.70;;;;;;5011083;28;20237;-71
2023/05/19 04:52:48;;;;;;;10.00;5.00;;;11.10;73.70;;;;;;5011286;28;20436;-70
2023/05/19 04:55:14;;;;;;;13.23;5.47;;;11.00;73.70;;;;;;5016851;28;20447;-71
2023/05/19 04:57:39;;;;;;;5.63;4.60;;;10.80;73.90;;;;;;5008477;28;20281;-71
2023/05/19 05:00:07;;;;;;;7.50;4.70;;;11.00;73.90;;;;;;5015249;28;20241;-72
2023/05/19 05:02:33;;;;;;;9.20;4.50;;;11.10;73.60;;;;;;5013419;28;20209;-70
2023/05/19 05:04:59;;;;;;;6.17;4.10;;;11.30;73.50;;;;;;5016982;28;20427;-73
2023/05/19 05:07:24;;;;;;;8.30;4.80;;;11.20;73.20;;;;;;5009978;28;20538;-70
2023/05/19 05:09:50;;;;;;;6.10;4.67;;;11.20;73.50;;;;;;5015750;28;20248;-70
2023/05/19 05:12:21;;;;;;;10.00;5.20;;;11.20;73.50;;;;;;5013840;28;20192;-70
2023/05/19 05:14:47;;;;;;;9.83;5.00;;;11.30;73.50;;;;;;5016801;28;20260;-70
2023/05/19 05:17:13;;;;;;;8.37;4.70;;;11.30;73.30;;;;;;5007406;28;20535;-70
2023/05/19 05:19:39;;;;;;;9.70;4.60;;;11.50;73.20;;;;;;5012908;28;20259;-71
2023/05/19 05:22:05;;;;;;;9.20;5.37;;;11.50;73.00;;;;;;5016382;28;20432;-71
2023/05/19 05:24:31;;;;;;;9.70;4.87;;;11.30;73.30;;;;;;5016500;28;20499;-70
2023/05/19 05:26:57;;;;;;;8.50;4.90;;;11.20;73.60;;;;;;5008615;28;20471;-71
2023/05/19 05:29:23;;;;;;;8.90;4.80;;;11.40;73.30;;;;;;5019748;28;21366;-71
2023/05/19 05:31:49;;;;;;;7.07;5.13;;;11.40;73.20;;;;;;5010196;28;20512;-71
2023/05/19 05:34:15;;;;;;;8.17;4.37;;;11.30;73.20;;;;;;5015458;28;20509;-71
2023/05/19 05:36:41;;;;;;;8.50;4.73;;;11.40;73.50;;;;;;5009556;28;20865;-73
2023/05/19 05:39:06;;;;;;;10.17;4.57;;;11.60;73.20;;;;;;5014499;28;20186;-72
2023/05/19 05:41:34;;;;;;;9.70;4.93;;;11.50;73.00;;;;;;5019142;28;20352;-70
2023/05/19 05:44:03;;;;;;;8.47;4.63;;;11.40;73.20;;;;;;5013272;28;20438;-72
2023/05/19 05:46:29;;;;;;;9.80;4.93;;;11.50;73.20;;;;;;5014154;28;20591;-71
2023/05/19 05:48:55;;;;;;;8.27;5.27;;;11.60;73.30;;;;;;5016885;28;20633;-72
2023/05/19 05:51:24;;;;;;;10.07;4.90;;;11.60;73.00;;;;;;5015448;28;20432;-71
2023/05/19 05:53:52;;;;;;;8.90;5.13;;;11.20;73.50;;;;;;5018109;28;20416;-73
2023/05/19 05:56:18;;;;;;;9.60;4.70;;;11.20;73.70;;;;;;5011581;28;20461;-72
2023/05/19 05:58:44;;;;;;;14.20;4.90;;;11.30;73.60;;;;;;5016761;28;20470;-72
2023/05/19 06:01:10;;;;;;;8.63;4.97;;;11.50;73.50;;;;;;5018259;28;20464;-72
2023/05/19 06:03:45;;;;;;;7.70;4.93;;;11.60;73.20;;;;;;5014425;28;20193;-72
2023/05/19 06:06:12;;;;;;;8.90;4.43;;;11.80;73.20;;;;;;5008698;28;20497;-72
2023/05/19 06:08:38;;;;;;;8.50;5.00;;;11.80;72.90;;;;;;5013729;28;20877;-73
2023/05/19 06:11:07;;;;;;;13.63;6.07;;;11.90;72.90;;;;;;5015576;28;20424;-73
2023/05/19 06:13:34;;;;;;;25.90;6.90;;;11.80;73.00;;;;;;5016411;28;20227;-73
2023/05/19 06:15:59;;;;;;;16.60;6.40;;;12.00;73.00;;;;;;5012375;28;20848;-72
2023/05/19 06:18:25;;;;;;;10.47;4.80;;;12.10;72.40;;;;;;5016585;28;20457;-72
2023/05/19 06:20:51;;;;;;;13.70;5.30;;;12.10;72.60;;;;;;5032915;28;20185;-72
2023/05/19 06:23:16;;;;;;;10.50;4.93;;;12.30;72.60;;;;;;5019600;28;20212;-72
2023/05/19 06:25:42;;;;;;;9.93;5.40;;;12.30;72.30;;;;;;5015456;28;20206;-72
2023/05/19 06:28:07;;;;;;;9.20;5.40;;;12.40;72.10;;;;;;5009233;28;20555;-72
2023/05/19 06:30:33;;;;;;;10.87;5.33;;;12.40;71.70;;;;;;5017031;28;20186;-72
2023/05/19 06:32:58;;;;;;;10.57;5.43;;;12.50;72.40;;;;;;5013835;28;20191;-72
2023/05/19 06:35:24;;;;;;;8.10;5.07;;;12.50;72.10;;;;;;5008055;28;20186;-72
2023/05/19 06:37:50;;;;;;;10.67;5.50;;;12.20;72.30;;;;;;5005240;28;20194;-73
2023/05/19 06:40:15;;;;;;;10.57;5.40;;;12.00;73.00;;;;;;5010000;28;20248;-73
2023/05/19 06:42:41;;;;;;;9.53;4.93;;;12.00;73.20;;;;;;5022726;28;20910;-73
2023/05/19 06:45:07;;;;;;;8.73;5.40;;;12.20;73.00;;;;;;5008155;28;20198;-72
2023/05/19 06:47:32;;;;;;;15.37;5.40;;;12.30;73.00;;;;;;5022542;28;20246;-73
2023/05/19 06:49:58;;;;;;;9.43;4.57;;;12.30;73.00;;;;;;5012960;28;20479;-71
2023/05/19 06:52:24;;;;;;;10.90;5.40;;;12.50;73.00;;;;;;5013653;28;20284;-73
2023/05/19 06:54:49;;;;;;;15.13;5.27;;;12.60;72.30;;;;;;5013716;28;20271;-72
2023/05/19 06:57:15;;;;;;;14.80;5.30;;;12.70;72.30;;;;;;5007825;28;20214;-72
2023/05/19 06:59:42;;;;;;;9.60;4.37;;;12.90;72.00;;;;;;5010995;28;20190;-72
2023/05/19 07:02:08;;;;;;;10.30;5.37;;;13.10;71.60;;;;;;5018347;28;20947;-73
2023/05/19 07:04:35;;;;;;;10.60;4.83;;;13.20;71.30;;;;;;5014909;28;20447;-73
2023/05/19 07:07:00;;;;;;;12.07;6.00;;;13.40;71.10;;;;;;5009226;28;20461;-73
2023/05/19 07:09:26;;;;;;;10.17;4.90;;;13.20;70.50;;;;;;5011813;28;20482;-73
2023/05/19 07:11:51;;;;;;;15.23;4.80;;;13.20;71.30;;;;;;5011249;28;20190;-71
2023/05/19 07:14:17;;;;;;;10.53;6.00;;;13.60;71.00;;;;;;5011629;28;20189;-72
2023/05/19 07:16:43;;;;;;;14.43;4.80;;;13.50;70.70;;;;;;5006680;28;20227;-72
2023/05/19 07:19:08;;;;;;;7.53;4.90;;;13.70;70.70;;;;;;5011862;28;20292;-71
2023/05/19 07:21:34;;;;;;;7.97;4.73;;;13.80;70.20;;;;;;5013517;28;20325;-72
2023/05/19 07:24:00;;;;;;;11.03;5.60;;;13.80;70.20;;;;;;5020661;28;20185;-72
2023/05/19 07:26:26;;;;;;;7.50;4.60;;;13.90;70.10;;;;;;5010355;28;20237;-74
2023/05/19 07:28:51;;;;;;;14.03;5.30;;;14.00;69.80;;;;;;5014182;28;20422;-71
2023/05/19 07:31:17;;;;;;;7.80;4.50;;;14.10;69.70;;;;;;5010022;28;20519;-72
2023/05/19 07:33:42;;;;;;;10.60;5.47;;;14.10;69.80;;;;;;5019033;28;20189;-71
2023/05/19 07:36:08;;;;;;;9.87;5.60;;;14.00;69.80;;;;;;5003545;28;20313;-71
2023/05/19 07:38:34;;;;;;;10.03;5.30;;;13.80;70.10;;;;;;5017081;28;20214;-71
2023/05/19 07:41:00;;;;;;;10.90;5.07;;;13.70;70.20;;;;;;5012872;28;20189;-72
2023/05/19 07:43:26;;;;;;;8.20;4.87;;;13.60;70.50;;;;;;5018760;28;20464;-71
2023/05/19 07:45:52;;;;;;;7.97;4.70;;;13.80;69.90;;;;;;5001386;28;20491;-72
2023/05/19 07:48:21;;;;;;;12.33;5.07;;;14.20;69.70;;;;;;5011956;28;20847;-71
2023/05/19 07:50:47;;;;;;;8.83;4.53;;;14.50;69.10;;;;;;5010746;28;20439;-73
2023/05/19 07:53:13;;;;;;;8.93;4.57;;;14.70;67.70;;;;;;5016991;28;20432;-73
2023/05/19 07:55:39;;;;;;;8.67;5.30;;;14.70;67.00;;;;;;5012099;28;20470;-73
2023/05/19 07:58:05;;;;;;;8.60;5.00;;;14.60;67.50;;;;;;5014179;28;21084;-73
2023/05/19 08:00:31;;;;;;;8.50;5.20;;;14.70;67.30;;;;;;5013216;28;20422;-73
2023/05/19 08:02:57;;;;;;;7.30;4.77;;;14.50;67.70;;;;;;5013540;28;20783;-73
2023/05/19 08:05:24;;;;;;;11.80;5.70;;;14.20;68.30;;;;;;5012532;28;20196;-73
2023/05/19 08:07:50;;;;;;;8.07;4.77;;;14.30;68.00;;;;;;5009948;28;20450;-72
2023/05/19 08:10:16;;;;;;;12.50;4.83;;;14.30;68.20;;;;;;5016782;28;20529;-74
2023/05/19 08:12:42;;;;;;;11.60;5.10;;;14.40;68.20;;;;;;5018548;28;20198;-72
2023/05/19 08:15:10;;;;;;;9.50;5.00;;;14.20;68.60;;;;;;5015907;28;20187;-74
2023/05/19 08:17:36;;;;;;;8.30;4.87;;;14.10;68.50;;;;;;5008696;28;20469;-72
2023/05/19 08:20:04;;;;;;;11.30;5.33;;;13.90;68.90;;;;;;5013952;28;20536;-73
2023/05/19 08:22:30;;;;;;;7.03;4.90;;;14.00;69.10;;;;;;5019497;28;20187;-72
2023/05/19 08:24:56;;;;;;;12.93;5.07;;;14.10;68.90;;;;;;5017445;28;20844;-73
2023/05/19 08:27:22;;;;;;;7.47;5.07;;;14.30;68.60;;;;;;5014010;28;20213;-72
2023/05/19 08:29:48;;;;;;;8.70;5.03;;;14.60;68.20;;;;;;5019104;28;20472;-72
2023/05/19 08:32:13;;;;;;;8.80;5.47;;;14.70;67.50;;;;;;5019618;28;20192;-72
2023/05/19 08:34:40;;;;;;;9.27;4.87;;;14.90;66.70;;;;;;5015389;28;20279;-73
2023/05/19 08:37:06;;;;;;;10.93;5.10;;;14.80;66.40;;;;;;5009266;28;20212;-73
2023/05/19 08:39:33;;;;;;;9.13;3.93;;;14.80;66.60;;;;;;5019079;28;20435;-73
2023/05/19 08:41:59;;;;;;;7.10;4.40;;;14.90;66.30;;;;;;5011989;28;20422;-74
2023/05/19 08:44:25;;;;;;;6.27;4.87;;;15.00;65.80;;;;;;5019933;28;20430;-74
2023/05/19 08:46:53;;;;;;;13.27;4.97;;;14.80;66.40;;;;;;5008421;28;20486;-73
2023/05/19 08:49:23;;;;;;;7.33;4.87;;;14.90;66.40;;;;;;5019695;28;20573;-74
2023/05/19 08:52:07;;;;;;;10.10;5.20;;;14.70;66.60;;;;;;5015496;28;20510;-73
2023/05/19 08:54:42;;;;;;;11.83;4.80;;;15.00;66.30;;;;;;5016389;28;21226;-72
2023/05/19 08:57:08;;;;;;;9.17;4.67;;;15.10;66.10;;;;;;5004660;28;20555;-72
2023/05/19 08:59:34;;;;;;;9.90;4.70;;;15.20;65.70;;;;;;5023503;28;20439;-73
2023/05/19 09:02:00;;;;;;;9.50;4.00;;;15.20;65.60;;;;;;5016440;28;20420;-74
2023/05/19 09:04:27;;;;;;;9.47;3.70;;;15.30;65.60;;;;;;5014806;28;20561;-72
2023/05/19 09:06:52;;;;;;;8.83;4.47;;;15.40;65.00;;;;;;5010240;28;20233;-72
2023/05/19 09:09:18;;;;;;;10.40;4.50;;;15.40;64.80;;;;;;5013548;28;20510;-72
2023/05/19 09:11:45;;;;;;;8.50;5.13;;;15.30;65.60;;;;;;5016476;28;20188;-72
2023/05/19 09:14:11;;;;;;;8.07;5.20;;;15.10;65.80;;;;;;5022261;28;20433;-72
2023/05/19 09:16:37;;;;;;;9.00;4.90;;;14.70;66.60;;;;;;5014239;28;20501;-73
2023/05/19 09:19:03;;;;;;;8.03;5.13;;;14.70;67.20;;;;;;5013722;28;20211;-73
2023/05/19 09:21:32;;;;;;;13.83;5.23;;;14.50;67.30;;;;;;5020203;28;20637;-74
2023/05/19 09:24:06;;;;;;;12.37;4.90;;;14.30;67.90;;;;;;5007771;28;20751;-73
2023/05/19 09:26:37;;;;;;;9.80;4.80;;;14.00;68.90;;;;;;5007917;28;20490;-73
2023/05/19 09:29:16;;;;;;;8.63;5.30;;;14.20;68.20;;;;;;5015366;28;20477;-74
2023/05/19 09:31:53;;;;;;;14.93;5.77;;;14.40;68.30;;;;;;5016964;28;20750;-74
2023/05/19 09:34:23;;;;;;;12.30;4.60;;;14.40;67.70;;;;;;5009865;28;20883;-74
2023/05/19 09:36:50;;;;;;;9.20;4.67;;;14.50;68.30;;;;;;5009494;28;20523;-73
2023/05/19 09:39:17;;;;;;;7.50;5.10;;;14.70;67.30;;;;;;5016947;28;20435;-73
2023/05/19 09:41:43;;;;;;;15.53;4.83;;;14.50;67.50;;;;;;5018526;28;20490;-74
2023/05/19 09:44:28;;;;;;;12.23;5.30;;;14.60;67.70;;;;;;5016377;28;21020;-74
2023/05/19 09:46:54;;;;;;;10.03;4.80;;;14.50;67.60;;;;;;5013931;28;20466;-74
2023/05/19 09:49:22;;;;;;;7.93;4.37;;;14.60;67.50;;;;;;5019575;28;20468;-73
2023/05/19 09:51:55;;;;;;;8.50;5.17;;;14.60;67.60;;;;;;5018031;28;21219;-74
2023/05/19 09:54:22;;;;;;;7.90;4.53;;;14.70;67.00;;;;;;5016555;28;20433;-73
2023/05/19 09:57:06;;;;;;;8.60;4.80;;;15.00;67.20;;;;;;5011279;28;20466;-74
2023/05/19 09:59:32;;;;;;;6.30;4.07;;;15.00;66.30;;;;;;5013955;28;20507;-72
2023/05/19 10:01:59;;;;;;;10.77;4.70;;;15.00;66.40;;;;;;5009083;28;20506;-72
2023/05/19 10:04:26;;;;;;;11.13;4.57;;;15.10;66.70;;;;;;5017262;28;20189;-73
2023/05/19 10:06:53;;;;;;;10.57;5.30;;;15.00;66.70;;;;;;5008784;28;20478;-73
2023/05/19 10:09:23;;;;;;;8.37;4.63;;;15.00;66.70;;;;;;5012247;28;20480;-74
2023/05/19 10:11:54;;;;;;;7.93;4.43;;;15.30;66.10;;;;;;5007069;28;20516;-72
2023/05/19 10:14:24;;;;;;;16.30;5.40;;;15.20;65.40;;;;;;5014735;28;20523;-73
2023/05/19 10:16:51;;;;;;;9.87;5.50;;;14.90;66.40;;;;;;5009806;28;20471;-73
2023/05/19 10:19:20;;;;;;;7.93;5.10;;;15.20;66.60;;;;;;5012671;28;20813;-74
2023/05/19 10:21:46;;;;;;;9.07;5.33;;;14.70;66.60;;;;;;5016012;28;20431;-74
2023/05/19 10:24:11;;;;;;;12.73;5.40;;;14.70;67.50;;;;;;5011187;28;20444;-73
2023/05/19 10:26:41;;;;;;;8.53;4.67;;;14.80;67.00;;;;;;5009746;28;20248;-73
2023/05/19 10:29:07;;;;;;;11.10;4.80;;;15.00;66.60;;;;;;5014111;28;20216;-74
2023/05/19 10:31:34;;;;;;;11.50;5.30;;;14.80;66.90;;;;;;5015274;28;21119;-75
2023/05/19 10:34:22;;;;;;;10.77;4.77;;;15.10;66.40;;;;;;5012288;28;20581;-74
2023/05/19 10:37:15;;;;;;;13.00;5.90;;;14.90;66.60;;;;;;5004891;28;20466;-73
2023/05/19 10:39:42;;;;;;;15.80;4.97;;;14.70;67.00;;;;;;5013923;28;20499;-74
2023/05/19 10:42:14;;;;;;;11.17;5.03;;;14.70;67.70;;;;;;5019017;28;20495;-74
2023/05/19 10:44:54;;;;;;;6.97;4.40;;;14.90;66.90;;;;;;5011253;28;20840;-75
2023/05/19 10:47:26;;;;;;;6.93;4.73;;;14.80;67.50;;;;;;5016201;28;20531;-73
2023/05/19 10:49:53;;;;;;;9.13;5.23;;;14.70;66.90;;;;;;5014191;28;20469;-73
2023/05/19 10:52:28;;;;;;;9.00;4.83;;;14.70;67.20;;;;;;5014900;28;20457;-73
2023/05/19 10:54:54;;;;;;;10.67;4.80;;;14.70;66.90;;;;;;5014589;28;20428;-74
2023/05/19 10:57:26;;;;;;;9.60;4.93;;;14.50;67.50;;;;;;5010318;28;20464;-74
2023/05/19 10:59:54;;;;;;;6.40;4.57;;;14.50;68.00;;;;;;5013765;28;20193;-74
2023/05/19 11:02:42;;;;;;;8.80;4.70;;;14.60;67.90;;;;;;5010270;28;20445;-73
2023/05/19 11:05:13;;;;;;;10.00;4.93;;;14.80;67.00;;;;;;5019193;28;20488;-75
2023/05/19 11:08:07;;;;;;;9.50;5.10;;;14.80;67.20;;;;;;5011003;28;20533;-74
2023/05/19 11:10:33;;;;;;;9.20;4.77;;;14.70;67.20;;;;;;5015642;28;20427;-73
2023/05/19 11:12:59;;;;;;;7.53;4.13;;;14.70;67.00;;;;;;5010739;28;20418;-72
2023/05/19 11:15:29;;;;;;;13.50;5.07;;;14.90;66.90;;;;;;5009594;28;20482;-72
2023/05/19 11:17:54;;;;;;;8.60;5.07;;;15.00;66.40;;;;;;5008517;28;20426;-73
2023/05/19 11:20:28;;;;;;;10.63;4.77;;;14.50;67.30;;;;;;5009876;28;20435;-72
2023/05/19 11:23:02;;;;;;;8.77;4.40;;;14.40;67.60;;;;;;5015544;28;21223;-74
2023/05/19 11:25:47;;;;;;;10.97;5.60;;;14.30;67.90;;;;;;5027287;28;20421;-74
2023/05/19 11:28:24;;;;;;;11.43;5.10;;;14.50;68.00;;;;;;5004940;28;20516;-74
2023/05/19 11:30:52;;;;;;;11.07;5.37;;;14.80;67.30;;;;;;5007626;28;21014;-75
2023/05/19 11:33:19;;;;;;;10.23;5.00;;;14.90;66.90;;;;;;5022076;28;20427;-74
2023/05/19 11:35:49;;;;;;;8.77;4.80;;;15.10;67.00;;;;;;5012334;28;20467;-74
2023/05/19 11:38:17;;;;;;;11.23;5.20;;;15.20;66.10;;;;;;5018530;28;20922;-74
2023/05/19 11:40:43;;;;;;;8.23;4.97;;;15.20;66.00;;;;;;5019518;28;20423;-71
2023/05/19 11:43:09;;;;;;;9.00;5.43;;;14.90;66.30;;;;;;5018069;28;20816;-72
2023/05/19 11:45:34;;;;;;;7.80;4.73;;;15.00;66.40;;;;;;5011818;28;20416;-73
2023/05/19 11:48:04;;;;;;;6.23;4.23;;;15.00;66.00;;;;;;5014015;28;20186;-74
2023/05/19 11:50:31;;;;;;;12.63;5.17;;;15.00;66.10;;;;;;5018240;28;20216;-73
2023/05/19 11:52:59;;;;;;;8.13;4.60;;;15.00;66.40;;;;;;5020394;28;20414;-73
2023/05/19 11:55:25;;;;;;;8.90;4.37;;;15.10;66.00;;;;;;5011861;28;20431;-73
2023/05/19 11:58:02;;;;;;;11.60;4.13;;;15.30;65.70;;;;;;5011680;28;20436;-75
2023/05/19 12:00:30;;;;;;;16.07;5.30;;;15.40;65.30;;;;;;5014723;28;20625;-71
2023/05/19 12:02:56;;;;;;;7.10;4.87;;;15.60;64.80;;;;;;5019238;28;20414;-74
2023/05/19 12:05:23;;;;;;;10.20;4.70;;;15.30;65.00;;;;;;5018369;28;20458;-73
2023/05/19 12:07:50;;;;;;;7.97;4.63;;;15.30;65.60;;;;;;5018258;28;21209;-73
2023/05/19 12:10:27;;;;;;;9.43;5.10;;;15.00;65.80;;;;;;5015122;28;20465;-73
2023/05/19 12:12:54;;;;;;;8.90;5.00;;;14.90;66.30;;;;;;5015514;28;20433;-72
2023/05/19 12:15:20;;;;;;;10.97;5.43;;;15.00;66.70;;;;;;5016134;28;20432;-73
2023/05/19 12:18:04;;;;;;;11.53;4.70;;;15.20;66.10;;;;;;5015626;28;20466;-73
2023/05/19 12:20:31;;;;;;;9.23;5.47;;;15.20;65.70;;;;;;5024366;28;20426;-73
2023/05/19 12:22:58;;;;;;;8.97;5.40;;;15.10;66.30;;;;;;5019057;28;20929;-74
2023/05/19 12:25:24;;;;;;;14.30;5.23;;;15.40;65.70;;;;;;5011399;28;20438;-73
2023/05/19 12:27:51;;;;;;;11.57;5.00;;;15.60;65.00;;;;;;5015511;28;20521;-72
2023/05/19 12:30:18;;;;;;;8.37;5.10;;;15.70;64.70;;;;;;5013011;28;20858;-72
2023/05/19 12:32:45;;;;;;;9.53;5.00;;;16.00;64.40;;;;;;5017757;28;20415;-71
2023/05/19 12:35:11;;;;;;;10.90;5.03;;;16.00;64.10;;;;;;5022014;28;20421;-73
2023/05/19 12:37:41;;;;;;;7.70;4.40;;;16.20;63.50;;;;;;5011200;28;20944;-73
2023/05/19 12:40:08;;;;;;;7.13;4.87;;;16.30;63.20;;;;;;5019690;28;20236;-72
2023/05/19 12:42:34;;;;;;;9.30;4.60;;;16.50;62.90;;;;;;5018092;28;20426;-73
2023/05/19 12:45:03;;;;;;;10.90;5.80;;;16.60;62.90;;;;;;5019362;28;20980;-74
2023/05/19 12:47:33;;;;;;;14.30;4.73;;;16.60;62.20;;;;;;5011245;28;20986;-74